sensor_id;sensor_type;location;lat;lon;timestamp;P1;durP1;ratioP1;P2;durP2;ratioP2
7348;SDS011;13010;-33.424;-70.614;2023-03-11T00:02:10;8.97;;;2.30;;
7348;SDS011;13010;-33.424;-70.614;2023-03-11T00:04:58;3.97;;;1.10;;
7348;SDS011;13010;-33.424;-70.614;2023-03-11T00:07:48;3.20;;;1.40;;
7348;SDS011;13010;-33.424;-70.614;2023-03-11T00:10:38;4.20;;;1.23;;
7348;SDS011;13010;-33.424;-70.614;2023-03-11T00:13:30;7.23;;;1.43;;
7348;SDS011;13010;-33.424;-70.614;2023-03-11T00:16:20;5.10;;;1.30;;
7348;SDS011;13010;-33.424;-70.614;2023-03-11T00:19:09;3.10;;;1.13;;
7348;SDS011;13010;-33.424;-70.614;2023-03-11T00:21:59;4.30;;;1.43;;
7348;SDS011;13010;-33.424;-70.614;2023-03-11T00:24:49;2.73;;;1.10;;
7348;SDS011;13010;-33.424;-70.614;2023-03-11T00:27:38;4.73;;;1.07;;
7348;SDS011;13010;-33.424;-70.614;2023-03-11T00:30:29;8.07;;;1.00;;
7348;SDS011;13010;-33.424;-70.614;2023-03-11T00:33:18;3.70;;;0.90;;
7348;SDS011;13010;-33.424;-70.614;2023-03-11T00:36:10;4.20;;;1.40;;
7348;SDS011;13010;-33.424;-70.614;2023-03-11T00:39:09;2.60;;;0.90;;
7348;SDS011;13010;-33.424;-70.614;2023-03-11T00:41:58;5.00;;;1.57;;
7348;SDS011;13010;-33.424;-70.614;2023-03-11T00:44:47;2.60;;;0.80;;
7348;SDS011;13010;-33.424;-70.614;2023-03-11T00:47:38;2.70;;;0.87;;
7348;SDS011;13010;-33.424;-70.614;2023-03-11T00:50:27;4.70;;;1.23;;
7348;SDS011;13010;-33.424;-70.614;2023-03-11T00:53:18;3.53;;;1.07;;
7348;SDS011;13010;-33.424;-70.614;2023-03-11T00:56:07;4.57;;;1.10;;
7348;SDS011;13010;-33.424;-70.614;2023-03-11T00:58:57;7.07;;;1.00;;
7348;SDS011;13010;-33.424;-70.614;2023-03-11T01:01:46;3.10;;;0.87;;
7348;SDS011;13010;-33.424;-70.614;2023-03-11T01:04:37;5.50;;;1.53;;
7348;SDS011;13010;-33.424;-70.614;2023-03-11T01:07:26;7.00;;;1.03;;
7348;SDS011;13010;-33.424;-70.614;2023-03-11T01:10:15;3.23;;;0.93;;
7348;SDS011;13010;-33.424;-70.614;2023-03-11T01:13:05;2.00;;;0.40;;
7348;SDS011;13010;-33.424;-70.614;2023-03-11T01:15:54;2.43;;;0.70;;
7348;SDS011;13010;-33.424;-70.614;2023-03-11T01:18:43;7.83;;;1.00;;
7348;SDS011;13010;-33.424;-70.614;2023-03-11T01:21:34;3.63;;;0.83;;
7348;SDS011;13010;-33.424;-70.614;2023-03-11T01:24:22;4.67;;;0.73;;
7348;SDS011;13010;-33.424;-70.614;2023-03-11T01:27:11;2.90;;;0.83;;
7348;SDS011;13010;-33.424;-70.614;2023-03-11T01:30:01;3.30;;;1.00;;
7348;SDS011;13010;-33.424;-70.614;2023-03-11T01:32:51;3.77;;;0.83;;
7348;SDS011;13010;-33.424;-70.614;2023-03-11T01:35:41;3.80;;;0.90;;
7348;SDS011;13010;-33.424;-70.614;2023-03-11T01:38:32;4.00;;;0.83;;
7348;SDS011;13010;-33.424;-70.614;2023-03-11T01:41:22;2.83;;;0.73;;
7348;SDS011;13010;-33.424;-70.614;2023-03-11T01:44:11;4.87;;;1.03;;
7348;SDS011;13010;-33.424;-70.614;2023-03-11T01:50:22;3.17;;;1.00;;
7348;SDS011;13010;-33.424;-70.614;2023-03-11T01:53:13;5.67;;;1.80;;
7348;SDS011;13010;-33.424;-70.614;2023-03-11T01:56:08;3.17;;;1.00;;
7348;SDS011;13010;-33.424;-70.614;2023-03-11T01:58:57;5.10;;;1.10;;
7348;SDS011;13010;-33.424;-70.614;2023-03-11T02:01:49;3.10;;;0.80;;
7348;SDS011;13010;-33.424;-70.614;2023-03-11T02:04:45;4.47;;;0.80;;
7348;SDS011;13010;-33.424;-70.614;2023-03-11T02:07:37;2.90;;;0.80;;
7348;SDS011;13010;-33.424;-70.614;2023-03-11T02:10:28;2.77;;;0.80;;
7348;SDS011;13010;-33.424;-70.614;2023-03-11T02:13:19;3.30;;;1.10;;
7348;SDS011;13010;-33.424;-70.614;2023-03-11T02:16:10;3.00;;;0.90;;
7348;SDS011;13010;-33.424;-70.614;2023-03-11T02:19:03;3.23;;;1.10;;
7348;SDS011;13010;-33.424;-70.614;2023-03-11T02:21:58;4.47;;;1.00;;
7348;SDS011;13010;-33.424;-70.614;2023-03-11T02:24:49;3.33;;;1.20;;
7348;SDS011;13010;-33.424;-70.614;2023-03-11T02:27:51;3.70;;;0.90;;
7348;SDS011;13010;-33.424;-70.614;2023-03-11T02:30:42;5.30;;;0.70;;
7348;SDS011;13010;-33.424;-70.614;2023-03-11T02:33:34;8.07;;;1.00;;
7348;SDS011;13010;-33.424;-70.614;2023-03-11T02:36:35;4.17;;;0.80;;
7348;SDS011;13010;-33.424;-70.614;2023-03-11T02:39:30;8.00;;;1.30;;
7348;SDS011;13010;-33.424;-70.614;2023-03-11T02:42:22;5.50;;;0.90;;
7348;SDS011;13010;-33.424;-70.614;2023-03-11T02:45:17;6.40;;;1.10;;
7348;SDS011;13010;-33.424;-70.614;2023-03-11T02:48:11;2.87;;;0.90;;
7348;SDS011;13010;-33.424;-70.614;2023-03-11T02:51:02;2.67;;;0.73;;
7348;SDS011;13010;-33.424;-70.614;2023-03-11T02:53:53;4.80;;;0.93;;
7348;SDS011;13010;-33.424;-70.614;2023-03-11T02:56:45;8.40;;;1.10;;
7348;SDS011;13010;-33.424;-70.614;2023-03-11T02:59:35;6.27;;;0.83;;
7348;SDS011;13010;-33.424;-70.614;2023-03-11T03:02:26;6.93;;;1.03;;
7348;SDS011;13010;-33.424;-70.614;2023-03-11T03:05:15;5.70;;;0.90;;
7348;SDS011;13010;-33.424;-70.614;2023-03-11T03:08:08;2.83;;;0.90;;
7348;SDS011;13010;-33.424;-70.614;2023-03-11T03:10:57;3.60;;;1.00;;
7348;SDS011;13010;-33.424;-70.614;2023-03-11T03:13:47;4.03;;;1.00;;
7348;SDS011;13010;-33.424;-70.614;2023-03-11T03:16:37;2.37;;;0.70;;
7348;SDS011;13010;-33.424;-70.614;2023-03-11T03:19:29;4.20;;;0.90;;
7348;SDS011;13010;-33.424;-70.614;2023-03-11T03:22:18;3.93;;;1.00;;
7348;SDS011;13010;-33.424;-70.614;2023-03-11T03:25:11;3.17;;;1.17;;
7348;SDS011;13010;-33.424;-70.614;2023-03-11T03:28:02;4.83;;;1.07;;
7348;SDS011;13010;-33.424;-70.614;2023-03-11T03:30:52;3.47;;;0.53;;
7348;SDS011;13010;-33.424;-70.614;2023-03-11T03:33:41;6.30;;;0.90;;
7348;SDS011;13010;-33.424;-70.614;2023-03-11T03:36:33;3.00;;;0.80;;
7348;SDS011;13010;-33.424;-70.614;2023-03-11T03:39:23;4.30;;;1.33;;
7348;SDS011;13010;-33.424;-70.614;2023-03-11T03:42:12;6.93;;;1.13;;
7348;SDS011;13010;-33.424;-70.614;2023-03-11T03:45:02;6.13;;;1.07;;
7348;SDS011;13010;-33.424;-70.614;2023-03-11T03:47:56;3.47;;;0.80;;
7348;SDS011;13010;-33.424;-70.614;2023-03-11T03:50:46;5.33;;;1.40;;
7348;SDS011;13010;-33.424;-70.614;2023-03-11T03:53:38;2.67;;;0.80;;
7348;SDS011;13010;-33.424;-70.614;2023-03-11T03:56:29;3.30;;;1.43;;
7348;SDS011;13010;-33.424;-70.614;2023-03-11T03:59:19;4.53;;;0.90;;
7348;SDS011;13010;-33.424;-70.614;2023-03-11T04:02:08;11.93;;;1.00;;
7348;SDS011;13010;-33.424;-70.614;2023-03-11T04:04:58;7.90;;;1.40;;
7348;SDS011;13010;-33.424;-70.614;2023-03-11T04:07:46;4.47;;;1.30;;
7348;SDS011;13010;-33.424;-70.614;2023-03-11T04:10:38;2.70;;;0.80;;
7348;SDS011;13010;-33.424;-70.614;2023-03-11T04:13:27;3.40;;;1.07;;
7348;SDS011;13010;-33.424;-70.614;2023-03-11T04:16:16;3.60;;;1.10;;
7348;SDS011;13010;-33.424;-70.614;2023-03-11T04:19:07;5.30;;;1.90;;
7348;SDS011;13010;-33.424;-70.614;2023-03-11T04:21:57;7.90;;;1.83;;
7348;SDS011;13010;-33.424;-70.614;2023-03-11T04:24:46;4.27;;;0.87;;
7348;SDS011;13010;-33.424;-70.614;2023-03-11T04:27:39;6.27;;;1.27;;
7348;SDS011;13010;-33.424;-70.614;2023-03-11T04:30:29;8.80;;;2.13;;
7348;SDS011;13010;-33.424;-70.614;2023-03-11T04:33:18;2.83;;;1.03;;
7348;SDS011;13010;-33.424;-70.614;2023-03-11T04:36:08;2.73;;;1.13;;
7348;SDS011;13010;-33.424;-70.614;2023-03-11T04:38:58;2.87;;;0.93;;
7348;SDS011;13010;-33.424;-70.614;2023-03-11T04:41:47;5.27;;;1.00;;
7348;SDS011;13010;-33.424;-70.614;2023-03-11T04:44:39;4.23;;;0.90;;
7348;SDS011;13010;-33.424;-70.614;2023-03-11T04:47:29;2.90;;;0.70;;
7348;SDS011;13010;-33.424;-70.614;2023-03-11T04:50:18;2.73;;;0.83;;
7348;SDS011;13010;-33.424;-70.614;2023-03-11T04:53:08;3.57;;;1.20;;
7348;SDS011;13010;-33.424;-70.614;2023-03-11T04:55:58;3.50;;;1.27;;
7348;SDS011;13010;-33.424;-70.614;2023-03-11T04:58:47;2.40;;;0.97;;
7348;SDS011;13010;-33.424;-70.614;2023-03-11T05:01:37;2.83;;;1.00;;
7348;SDS011;13010;-33.424;-70.614;2023-03-11T05:04:26;2.90;;;1.10;;
7348;SDS011;13010;-33.424;-70.614;2023-03-11T05:07:16;7.07;;;1.73;;
7348;SDS011;13010;-33.424;-70.614;2023-03-11T05:10:05;4.00;;;1.03;;
7348;SDS011;13010;-33.424;-70.614;2023-03-11T05:12:54;2.57;;;0.93;;
7348;SDS011;13010;-33.424;-70.614;2023-03-11T05:15:44;3.50;;;0.70;;
7348;SDS011;13010;-33.424;-70.614;2023-03-11T05:18:35;2.50;;;1.23;;
7348;SDS011;13010;-33.424;-70.614;2023-03-11T05:21:24;3.37;;;1.23;;
7348;SDS011;13010;-33.424;-70.614;2023-03-11T05:24:13;6.47;;;1.57;;
7348;SDS011;13010;-33.424;-70.614;2023-03-11T05:27:02;3.07;;;1.00;;
7348;SDS011;13010;-33.424;-70.614;2023-03-11T05:29:51;3.03;;;1.17;;
7348;SDS011;13010;-33.424;-70.614;2023-03-11T05:32:40;6.80;;;1.30;;
7348;SDS011;13010;-33.424;-70.614;2023-03-11T05:35:31;3.70;;;1.37;;
7348;SDS011;13010;-33.424;-70.614;2023-03-11T05:38:20;4.13;;;1.73;;
7348;SDS011;13010;-33.424;-70.614;2023-03-11T05:41:08;7.13;;;1.40;;
7348;SDS011;13010;-33.424;-70.614;2023-03-11T05:43:57;5.00;;;1.20;;
7348;SDS011;13010;-33.424;-70.614;2023-03-11T05:46:47;5.37;;;1.10;;
7348;SDS011;13010;-33.424;-70.614;2023-03-11T05:49:36;5.27;;;1.70;;
7348;SDS011;13010;-33.424;-70.614;2023-03-11T05:52:27;5.00;;;1.10;;
7348;SDS011;13010;-33.424;-70.614;2023-03-11T05:55:17;4.83;;;1.67;;
7348;SDS011;13010;-33.424;-70.614;2023-03-11T05:58:06;5.60;;;2.00;;
7348;SDS011;13010;-33.424;-70.614;2023-03-11T06:00:55;3.90;;;1.73;;
7348;SDS011;13010;-33.424;-70.614;2023-03-11T06:03:44;9.10;;;1.43;;
7348;SDS011;13010;-33.424;-70.614;2023-03-11T06:06:34;3.03;;;1.20;;
7348;SDS011;13010;-33.424;-70.614;2023-03-11T06:09:27;7.90;;;1.83;;
7348;SDS011;13010;-33.424;-70.614;2023-03-11T06:12:15;7.97;;;2.37;;
7348;SDS011;13010;-33.424;-70.614;2023-03-11T06:15:05;5.10;;;1.90;;
7348;SDS011;13010;-33.424;-70.614;2023-03-11T06:17:54;4.50;;;1.30;;
7348;SDS011;13010;-33.424;-70.614;2023-03-11T06:20:43;8.20;;;2.13;;
7348;SDS011;13010;-33.424;-70.614;2023-03-11T06:23:32;4.50;;;1.53;;
7348;SDS011;13010;-33.424;-70.614;2023-03-11T06:26:22;9.23;;;1.83;;
7348;SDS011;13010;-33.424;-70.614;2023-03-11T06:29:12;8.30;;;2.40;;
7348;SDS011;13010;-33.424;-70.614;2023-03-11T06:32:01;6.17;;;2.90;;
7348;SDS011;13010;-33.424;-70.614;2023-03-11T06:34:50;4.13;;;1.77;;
7348;SDS011;13010;-33.424;-70.614;2023-03-11T06:37:39;13.93;;;1.90;;
7348;SDS011;13010;-33.424;-70.614;2023-03-11T06:40:28;8.50;;;1.67;;
7348;SDS011;13010;-33.424;-70.614;2023-03-11T06:43:20;5.53;;;1.10;;
7348;SDS011;13010;-33.424;-70.614;2023-03-11T06:46:09;5.33;;;1.70;;
7348;SDS011;13010;-33.424;-70.614;2023-03-11T06:48:59;5.07;;;1.20;;
7348;SDS011;13010;-33.424;-70.614;2023-03-11T06:51:48;3.90;;;1.43;;
7348;SDS011;13010;-33.424;-70.614;2023-03-11T06:54:37;4.20;;;1.50;;
7348;SDS011;13010;-33.424;-70.614;2023-03-11T06:57:25;4.33;;;1.80;;
7348;SDS011;13010;-33.424;-70.614;2023-03-11T07:00:17;4.83;;;1.60;;
7348;SDS011;13010;-33.424;-70.614;2023-03-11T07:03:06;6.57;;;2.30;;
7348;SDS011;13010;-33.424;-70.614;2023-03-11T07:05:54;3.97;;;1.30;;
7348;SDS011;13010;-33.424;-70.614;2023-03-11T07:08:45;4.23;;;1.80;;
7348;SDS011;13010;-33.424;-70.614;2023-03-11T07:11:34;7.30;;;1.73;;
7348;SDS011;13010;-33.424;-70.614;2023-03-11T07:14:23;4.87;;;1.43;;
7348;SDS011;13010;-33.424;-70.614;2023-03-11T07:17:14;8.37;;;2.77;;
7348;SDS011;13010;-33.424;-70.614;2023-03-11T07:20:03;4.30;;;1.70;;
7348;SDS011;13010;-33.424;-70.614;2023-03-11T07:22:52;6.17;;;1.73;;
7348;SDS011;13010;-33.424;-70.614;2023-03-11T07:25:44;5.13;;;2.13;;
7348;SDS011;13010;-33.424;-70.614;2023-03-11T07:28:35;3.83;;;1.80;;
7348;SDS011;13010;-33.424;-70.614;2023-03-11T07:31:26;5.63;;;1.70;;
7348;SDS011;13010;-33.424;-70.614;2023-03-11T07:34:18;3.73;;;1.80;;
7348;SDS011;13010;-33.424;-70.614;2023-03-11T07:37:08;4.07;;;1.60;;
7348;SDS011;13010;-33.424;-70.614;2023-03-11T07:39:58;10.80;;;2.47;;
7348;SDS011;13010;-33.424;-70.614;2023-03-11T07:42:48;5.17;;;1.93;;
7348;SDS011;13010;-33.424;-70.614;2023-03-11T07:45:38;6.97;;;2.47;;
7348;SDS011;13010;-33.424;-70.614;2023-03-11T07:48:27;11.57;;;2.37;;
7348;SDS011;13010;-33.424;-70.614;2023-03-11T07:51:19;4.87;;;2.10;;
7348;SDS011;13010;-33.424;-70.614;2023-03-11T07:54:10;3.40;;;1.70;;
7348;SDS011;13010;-33.424;-70.614;2023-03-11T07:56:59;9.20;;;2.00;;
7348;SDS011;13010;-33.424;-70.614;2023-03-11T07:59:48;5.33;;;1.80;;
7348;SDS011;13010;-33.424;-70.614;2023-03-11T08:02:38;7.00;;;1.90;;
7348;SDS011;13010;-33.424;-70.614;2023-03-11T08:05:28;5.40;;;2.13;;
7348;SDS011;13010;-33.424;-70.614;2023-03-11T08:08:24;5.50;;;2.10;;
7348;SDS011;13010;-33.424;-70.614;2023-03-11T08:11:13;6.70;;;2.37;;
7348;SDS011;13010;-33.424;-70.614;2023-03-11T08:14:03;5.20;;;2.13;;
7348;SDS011;13010;-33.424;-70.614;2023-03-11T08:16:52;7.43;;;1.80;;
7348;SDS011;13010;-33.424;-70.614;2023-03-11T08:19:41;11.33;;;2.37;;
7348;SDS011;13010;-33.424;-70.614;2023-03-11T08:22:30;8.20;;;2.40;;
7348;SDS011;13010;-33.424;-70.614;2023-03-11T08:25:21;6.20;;;2.07;;
7348;SDS011;13010;-33.424;-70.614;2023-03-11T08:28:11;8.07;;;2.03;;
7348;SDS011;13010;-33.424;-70.614;2023-03-11T08:31:01;5.03;;;1.80;;
7348;SDS011;13010;-33.424;-70.614;2023-03-11T08:33:58;5.20;;;2.00;;
7348;SDS011;13010;-33.424;-70.614;2023-03-11T08:36:48;4.30;;;1.87;;
7348;SDS011;13010;-33.424;-70.614;2023-03-11T08:39:37;5.43;;;1.87;;
7348;SDS011;13010;-33.424;-70.614;2023-03-11T08:42:29;4.33;;;2.13;;
7348;SDS011;13010;-33.424;-70.614;2023-03-11T08:45:19;5.07;;;2.23;;
7348;SDS011;13010;-33.424;-70.614;2023-03-11T08:48:09;2.90;;;1.23;;
7348;SDS011;13010;-33.424;-70.614;2023-03-11T08:50:58;5.90;;;1.87;;
7348;SDS011;13010;-33.424;-70.614;2023-03-11T08:53:48;4.63;;;1.90;;
7348;SDS011;13010;-33.424;-70.614;2023-03-11T08:56:37;6.13;;;2.60;;
7348;SDS011;13010;-33.424;-70.614;2023-03-11T08:59:29;9.23;;;1.73;;
7348;SDS011;13010;-33.424;-70.614;2023-03-11T09:02:18;9.47;;;1.70;;
7348;SDS011;13010;-33.424;-70.614;2023-03-11T09:05:07;3.33;;;1.47;;
7348;SDS011;13010;-33.424;-70.614;2023-03-11T09:07:58;3.90;;;1.73;;
7348;SDS011;13010;-33.424;-70.614;2023-03-11T09:10:47;4.50;;;1.60;;
7348;SDS011;13010;-33.424;-70.614;2023-03-11T09:13:36;4.83;;;1.47;;
7348;SDS011;13010;-33.424;-70.614;2023-03-11T09:16:27;6.33;;;1.70;;
7348;SDS011;13010;-33.424;-70.614;2023-03-11T09:19:15;3.60;;;2.33;;
7348;SDS011;13010;-33.424;-70.614;2023-03-11T09:22:04;12.93;;;2.00;;
7348;SDS011;13010;-33.424;-70.614;2023-03-11T09:24:53;4.30;;;1.63;;
7348;SDS011;13010;-33.424;-70.614;2023-03-11T09:27:44;4.30;;;1.60;;
7348;SDS011;13010;-33.424;-70.614;2023-03-11T09:30:33;10.20;;;3.13;;
7348;SDS011;13010;-33.424;-70.614;2023-03-11T09:33:24;4.63;;;2.20;;
7348;SDS011;13010;-33.424;-70.614;2023-03-11T09:36:14;6.83;;;3.33;;
7348;SDS011;13010;-33.424;-70.614;2023-03-11T09:39:03;13.03;;;3.73;;
7348;SDS011;13010;-33.424;-70.614;2023-03-11T09:41:52;6.93;;;2.63;;
7348;SDS011;13010;-33.424;-70.614;2023-03-11T09:44:43;5.30;;;1.70;;
7348;SDS011;13010;-33.424;-70.614;2023-03-11T09:47:40;3.30;;;1.50;;
7348;SDS011;13010;-33.424;-70.614;2023-03-11T09:50:42;7.80;;;2.23;;
7348;SDS011;13010;-33.424;-70.614;2023-03-11T09:53:35;4.37;;;1.90;;
7348;SDS011;13010;-33.424;-70.614;2023-03-11T09:56:28;5.03;;;2.67;;
7348;SDS011;13010;-33.424;-70.614;2023-03-11T09:59:18;3.63;;;2.00;;
7348;SDS011;13010;-33.424;-70.614;2023-03-11T10:02:14;4.83;;;2.33;;
7348;SDS011;13010;-33.424;-70.614;2023-03-11T10:05:05;4.47;;;1.80;;
7348;SDS011;13010;-33.424;-70.614;2023-03-11T10:08:02;3.20;;;1.77;;
7348;SDS011;13010;-33.424;-70.614;2023-03-11T10:10:59;5.30;;;1.73;;
7348;SDS011;13010;-33.424;-70.614;2023-03-11T10:13:58;4.40;;;1.70;;
7348;SDS011;13010;-33.424;-70.614;2023-03-11T10:16:56;15.97;;;1.83;;
7348;SDS011;13010;-33.424;-70.614;2023-03-11T10:19:53;7.60;;;1.73;;
7348;SDS011;13010;-33.424;-70.614;2023-03-11T10:22:50;4.73;;;1.70;;
7348;SDS011;13010;-33.424;-70.614;2023-03-11T10:25:52;4.93;;;1.63;;
7348;SDS011;13010;-33.424;-70.614;2023-03-11T10:28:51;3.67;;;1.57;;
7348;SDS011;13010;-33.424;-70.614;2023-03-11T10:31:45;7.23;;;1.90;;
7348;SDS011;13010;-33.424;-70.614;2023-03-11T10:34:39;3.27;;;1.40;;
7348;SDS011;13010;-33.424;-70.614;2023-03-11T10:37:31;2.90;;;1.53;;
7348;SDS011;13010;-33.424;-70.614;2023-03-11T10:40:29;5.77;;;2.10;;
7348;SDS011;13010;-33.424;-70.614;2023-03-11T10:43:22;4.20;;;2.13;;
7348;SDS011;13010;-33.424;-70.614;2023-03-11T10:46:18;7.27;;;2.80;;
7348;SDS011;13010;-33.424;-70.614;2023-03-11T10:49:11;4.43;;;1.83;;
7348;SDS011;13010;-33.424;-70.614;2023-03-11T10:52:01;7.90;;;1.77;;
7348;SDS011;13010;-33.424;-70.614;2023-03-11T10:54:58;3.90;;;1.43;;
7348;SDS011;13010;-33.424;-70.614;2023-03-11T10:57:47;2.63;;;1.03;;
7348;SDS011;13010;-33.424;-70.614;2023-03-11T11:00:39;9.00;;;2.10;;
7348;SDS011;13010;-33.424;-70.614;2023-03-11T11:03:29;14.63;;;3.03;;
7348;SDS011;13010;-33.424;-70.614;2023-03-11T11:06:24;7.40;;;2.90;;
7348;SDS011;13010;-33.424;-70.614;2023-03-11T11:09:14;7.43;;;2.27;;
7348;SDS011;13010;-33.424;-70.614;2023-03-11T11:12:04;12.20;;;2.43;;
7348;SDS011;13010;-33.424;-70.614;2023-03-11T11:14:59;12.27;;;2.67;;
7348;SDS011;13010;-33.424;-70.614;2023-03-11T11:17:51;14.10;;;2.70;;
7348;SDS011;13010;-33.424;-70.614;2023-03-11T11:20:49;11.70;;;2.70;;
7348;SDS011;13010;-33.424;-70.614;2023-03-11T11:23:45;12.30;;;3.80;;
7348;SDS011;13010;-33.424;-70.614;2023-03-11T11:26:36;14.63;;;4.17;;
7348;SDS011;13010;-33.424;-70.614;2023-03-11T11:29:25;23.73;;;5.83;;
7348;SDS011;13010;-33.424;-70.614;2023-03-11T11:32:19;27.53;;;6.33;;
7348;SDS011;13010;-33.424;-70.614;2023-03-11T11:35:13;9.90;;;3.30;;
7348;SDS011;13010;-33.424;-70.614;2023-03-11T11:38:04;17.63;;;4.13;;
7348;SDS011;13010;-33.424;-70.614;2023-03-11T11:40:57;20.30;;;5.67;;
7348;SDS011;13010;-33.424;-70.614;2023-03-11T11:43:49;7.97;;;3.00;;
7348;SDS011;13010;-33.424;-70.614;2023-03-11T11:46:41;11.33;;;3.70;;
7348;SDS011;13010;-33.424;-70.614;2023-03-11T11:49:37;6.37;;;3.03;;
7348;SDS011;13010;-33.424;-70.614;2023-03-11T11:52:39;5.83;;;3.37;;
7348;SDS011;13010;-33.424;-70.614;2023-03-11T11:55:30;12.57;;;3.47;;
7348;SDS011;13010;-33.424;-70.614;2023-03-11T11:58:21;9.93;;;3.90;;
7348;SDS011;13010;-33.424;-70.614;2023-03-11T12:01:15;8.73;;;4.23;;
7348;SDS011;13010;-33.424;-70.614;2023-03-11T12:04:18;23.03;;;11.07;;
7348;SDS011;13010;-33.424;-70.614;2023-03-11T12:07:30;9.40;;;4.30;;
7348;SDS011;13010;-33.424;-70.614;2023-03-11T12:10:31;6.33;;;2.60;;
7348;SDS011;13010;-33.424;-70.614;2023-03-11T12:16:46;4.40;;;1.33;;
7348;SDS011;13010;-33.424;-70.614;2023-03-11T12:19:46;20.93;;;2.07;;
7348;SDS011;13010;-33.424;-70.614;2023-03-11T12:22:51;2.97;;;1.10;;
7348;SDS011;13010;-33.424;-70.614;2023-03-11T12:25:56;5.90;;;1.83;;
7348;SDS011;13010;-33.424;-70.614;2023-03-11T12:28:51;4.23;;;1.10;;
7348;SDS011;13010;-33.424;-70.614;2023-03-11T12:31:44;5.17;;;1.43;;
7348;SDS011;13010;-33.424;-70.614;2023-03-11T12:34:33;3.57;;;1.40;;
7348;SDS011;13010;-33.424;-70.614;2023-03-11T12:37:22;5.73;;;1.00;;
7348;SDS011;13010;-33.424;-70.614;2023-03-11T12:47:22;4.50;;;1.33;;
7348;SDS011;13010;-33.424;-70.614;2023-03-11T12:53:43;2.80;;;1.23;;
7348;SDS011;13010;-33.424;-70.614;2023-03-11T12:56:33;3.60;;;1.10;;
7348;SDS011;13010;-33.424;-70.614;2023-03-11T13:03:04;4.70;;;1.00;;
7348;SDS011;13010;-33.424;-70.614;2023-03-11T13:09:27;5.47;;;1.07;;
7348;SDS011;13010;-33.424;-70.614;2023-03-11T13:15:28;2.93;;;0.87;;
7348;SDS011;13010;-33.424;-70.614;2023-03-11T13:18:23;3.60;;;0.90;;
7348;SDS011;13010;-33.424;-70.614;2023-03-11T13:27:39;3.23;;;0.90;;
7348;SDS011;13010;-33.424;-70.614;2023-03-11T13:30:32;2.30;;;0.70;;
7348;SDS011;13010;-33.424;-70.614;2023-03-11T13:33:28;4.03;;;0.87;;
7348;SDS011;13010;-33.424;-70.614;2023-03-11T13:36:33;6.90;;;1.27;;
7348;SDS011;13010;-33.424;-70.614;2023-03-11T13:39:49;3.03;;;0.77;;
7348;SDS011;13010;-33.424;-70.614;2023-03-11T13:42:45;2.50;;;0.87;;
7348;SDS011;13010;-33.424;-70.614;2023-03-11T13:45:36;2.50;;;0.80;;
7348;SDS011;13010;-33.424;-70.614;2023-03-11T13:48:27;3.47;;;0.80;;
7348;SDS011;13010;-33.424;-70.614;2023-03-11T13:51:21;3.10;;;1.10;;
7348;SDS011;13010;-33.424;-70.614;2023-03-11T13:54:20;2.77;;;1.10;;
7348;SDS011;13010;-33.424;-70.614;2023-03-11T13:57:33;4.37;;;1.10;;
7348;SDS011;13010;-33.424;-70.614;2023-03-11T14:00:23;3.47;;;1.00;;
7348;SDS011;13010;-33.424;-70.614;2023-03-11T14:03:12;4.30;;;0.93;;
7348;SDS011;13010;-33.424;-70.614;2023-03-11T14:06:07;3.00;;;0.90;;
7348;SDS011;13010;-33.424;-70.614;2023-03-11T14:08:58;9.63;;;1.43;;
7348;SDS011;13010;-33.424;-70.614;2023-03-11T14:11:47;6.00;;;1.10;;
7348;SDS011;13010;-33.424;-70.614;2023-03-11T14:14:43;2.67;;;1.17;;
7348;SDS011;13010;-33.424;-70.614;2023-03-11T14:17:36;6.70;;;1.23;;
7348;SDS011;13010;-33.424;-70.614;2023-03-11T14:20:25;2.60;;;0.90;;
7348;SDS011;13010;-33.424;-70.614;2023-03-11T14:23:17;5.87;;;1.10;;
7348;SDS011;13010;-33.424;-70.614;2023-03-11T14:26:14;4.40;;;0.73;;
7348;SDS011;13010;-33.424;-70.614;2023-03-11T14:29:07;4.03;;;1.23;;
7348;SDS011;13010;-33.424;-70.614;2023-03-11T14:31:57;6.40;;;1.33;;
7348;SDS011;13010;-33.424;-70.614;2023-03-11T14:34:46;4.47;;;1.13;;
7348;SDS011;13010;-33.424;-70.614;2023-03-11T14:37:35;2.40;;;0.70;;
7348;SDS011;13010;-33.424;-70.614;2023-03-11T14:40:27;3.10;;;1.13;;
7348;SDS011;13010;-33.424;-70.614;2023-03-11T14:43:16;4.73;;;1.07;;
7348;SDS011;13010;-33.424;-70.614;2023-03-11T14:46:07;5.17;;;1.17;;
7348;SDS011;13010;-33.424;-70.614;2023-03-11T14:49:02;4.00;;;1.53;;
7348;SDS011;13010;-33.424;-70.614;2023-03-11T14:51:54;2.60;;;1.00;;
7348;SDS011;13010;-33.424;-70.614;2023-03-11T14:54:46;11.63;;;1.30;;
7348;SDS011;13010;-33.424;-70.614;2023-03-11T14:57:39;6.40;;;0.80;;
7348;SDS011;13010;-33.424;-70.614;2023-03-11T15:00:33;3.50;;;1.03;;
7348;SDS011;13010;-33.424;-70.614;2023-03-11T15:03:25;3.30;;;1.30;;
7348;SDS011;13010;-33.424;-70.614;2023-03-11T15:06:16;2.87;;;0.90;;
7348;SDS011;13010;-33.424;-70.614;2023-03-11T15:09:09;4.13;;;1.17;;
7348;SDS011;13010;-33.424;-70.614;2023-03-11T15:12:01;4.10;;;1.17;;
7348;SDS011;13010;-33.424;-70.614;2023-03-11T15:14:52;5.00;;;1.40;;
7348;SDS011;13010;-33.424;-70.614;2023-03-11T15:17:50;11.13;;;1.43;;
7348;SDS011;13010;-33.424;-70.614;2023-03-11T15:20:40;8.73;;;1.47;;
7348;SDS011;13010;-33.424;-70.614;2023-03-11T15:23:33;4.47;;;1.40;;
7348;SDS011;13010;-33.424;-70.614;2023-03-11T15:26:23;5.60;;;1.00;;
7348;SDS011;13010;-33.424;-70.614;2023-03-11T15:29:14;4.53;;;2.70;;
7348;SDS011;13010;-33.424;-70.614;2023-03-11T15:32:25;2.97;;;0.80;;
7348;SDS011;13010;-33.424;-70.614;2023-03-11T15:35:26;6.03;;;0.93;;
7348;SDS011;13010;-33.424;-70.614;2023-03-11T15:38:20;2.70;;;0.77;;
7348;SDS011;13010;-33.424;-70.614;2023-03-11T15:41:12;3.30;;;0.90;;
7348;SDS011;13010;-33.424;-70.614;2023-03-11T15:44:02;3.30;;;1.10;;
7348;SDS011;13010;-33.424;-70.614;2023-03-11T15:46:51;2.77;;;0.87;;
7348;SDS011;13010;-33.424;-70.614;2023-03-11T15:49:43;3.90;;;0.73;;
7348;SDS011;13010;-33.424;-70.614;2023-03-11T15:52:32;3.70;;;0.80;;
7348;SDS011;13010;-33.424;-70.614;2023-03-11T15:55:22;6.53;;;1.00;;
7348;SDS011;13010;-33.424;-70.614;2023-03-11T15:58:11;5.00;;;0.83;;
7348;SDS011;13010;-33.424;-70.614;2023-03-11T16:01:02;5.83;;;1.27;;
7348;SDS011;13010;-33.424;-70.614;2023-03-11T16:03:51;4.67;;;0.93;;
7348;SDS011;13010;-33.424;-70.614;2023-03-11T16:06:42;7.40;;;1.43;;
7348;SDS011;13010;-33.424;-70.614;2023-03-11T16:09:32;3.03;;;1.47;;
7348;SDS011;13010;-33.424;-70.614;2023-03-11T16:12:22;5.50;;;0.97;;
7348;SDS011;13010;-33.424;-70.614;2023-03-11T16:15:16;2.70;;;0.90;;
7348;SDS011;13010;-33.424;-70.614;2023-03-11T16:18:12;4.90;;;1.20;;
7348;SDS011;13010;-33.424;-70.614;2023-03-11T16:21:01;4.73;;;1.33;;
7348;SDS011;13010;-33.424;-70.614;2023-03-11T16:23:57;3.20;;;1.03;;
7348;SDS011;13010;-33.424;-70.614;2023-03-11T16:26:47;4.20;;;0.93;;
7348;SDS011;13010;-33.424;-70.614;2023-03-11T16:29:37;2.83;;;1.07;;
7348;SDS011;13010;-33.424;-70.614;2023-03-11T16:32:26;4.20;;;1.20;;
7348;SDS011;13010;-33.424;-70.614;2023-03-11T16:35:15;9.73;;;1.43;;
7348;SDS011;13010;-33.424;-70.614;2023-03-11T16:38:04;2.70;;;0.87;;
7348;SDS011;13010;-33.424;-70.614;2023-03-11T16:40:56;3.53;;;0.80;;
7348;SDS011;13010;-33.424;-70.614;2023-03-11T16:43:46;6.00;;;1.57;;
7348;SDS011;13010;-33.424;-70.614;2023-03-11T16:46:35;2.93;;;0.80;;
7348;SDS011;13010;-33.424;-70.614;2023-03-11T16:49:24;3.50;;;1.40;;
7348;SDS011;13010;-33.424;-70.614;2023-03-11T16:52:14;4.70;;;0.90;;
7348;SDS011;13010;-33.424;-70.614;2023-03-11T16:55:04;4.20;;;1.30;;
7348;SDS011;13010;-33.424;-70.614;2023-03-11T16:57:56;3.80;;;1.30;;
7348;SDS011;13010;-33.424;-70.614;2023-03-11T17:00:45;3.10;;;0.97;;
7348;SDS011;13010;-33.424;-70.614;2023-03-11T17:03:35;3.83;;;1.00;;
7348;SDS011;13010;-33.424;-70.614;2023-03-11T17:06:27;3.30;;;1.30;;
7348;SDS011;13010;-33.424;-70.614;2023-03-11T17:09:16;7.53;;;1.10;;
7348;SDS011;13010;-33.424;-70.614;2023-03-11T17:12:07;3.50;;;1.13;;
7348;SDS011;13010;-33.424;-70.614;2023-03-11T17:15:01;10.47;;;1.23;;
7348;SDS011;13010;-33.424;-70.614;2023-03-11T17:17:52;3.80;;;1.00;;